createdAt,value
2017-11-09T00:00:15.720Z,1001.88
2017-11-09T00:01:25.809Z,1001.88
2017-11-09T00:02:36.259Z,1001.87
2017-11-09T00:03:46.334Z,1001.87
2017-11-09T00:04:56.744Z,1001.9
2017-11-09T00:06:06.502Z,1001.92
2017-11-09T00:07:16.574Z,1001.93
2017-11-09T00:08:26.961Z,1001.96
2017-11-09T00:09:37.353Z,1001.97
2017-11-09T00:10:47.429Z,1001.97
2017-11-09T00:11:57.876Z,1001.96
2017-11-09T00:13:08.283Z,1001.99
2017-11-09T00:14:18.692Z,1001.99
2017-11-09T00:15:29.101Z,1002.04
2017-11-09T00:16:38.858Z,1002.03
2017-11-09T00:17:48.597Z,1002.05
2017-11-09T00:18:59.016Z,1002.05
2017-11-09T00:20:09.501Z,1002.03
2017-11-09T00:21:19.584Z,1002.09
2017-11-09T00:22:29.326Z,1002.06
2017-11-09T00:23:39.414Z,1002.07
2017-11-09T00:24:49.874Z,1002.04
2017-11-09T00:26:00.288Z,1002.06
2017-11-09T00:34:12.115Z,1002.1
2017-11-09T00:35:23.136Z,1002.09
2017-11-09T00:36:33.549Z,1002.07
2017-11-09T00:37:45.247Z,1002.1
2017-11-09T00:38:55.322Z,1002.07
2017-11-09T00:40:05.120Z,1002.08
2017-11-09T00:41:15.558Z,1002.07
2017-11-09T00:42:25.329Z,1002.04
2017-11-09T00:43:35.765Z,1002.03
2017-11-09T00:44:45.506Z,1002.04
2017-11-09T00:45:55.960Z,1002.05
2017-11-09T00:47:05.728Z,1002.08
2017-11-09T00:48:16.147Z,1002.06
2017-11-09T00:49:26.226Z,1002.03
2017-11-09T00:50:36.299Z,1002.06
2017-11-09T00:51:46.379Z,1002.04
2017-11-09T00:52:56.466Z,1002.05
2017-11-09T00:54:06.926Z,1002.07
2017-11-09T00:55:16.672Z,1002.04
2017-11-09T00:56:26.095Z,1002.06
2017-11-09T00:57:36.472Z,1002.1
2017-11-09T00:58:48.045Z,1002.06
2017-11-09T00:59:58.117Z,1002.1
2017-11-09T01:01:08.542Z,1002.09
2017-11-09T01:02:18.958Z,1002.13
2017-11-09T01:03:29.420Z,1002.12
2017-11-09T01:04:39.492Z,1002.15
2017-11-09T01:05:49.917Z,1002.17
2017-11-09T01:07:00.346Z,1002.17
2017-11-09T01:08:10.439Z,1002.19
2017-11-09T01:09:20.234Z,1002.21
2017-11-09T01:10:30.666Z,1002.21
2017-11-09T01:11:41.088Z,1002.18
2017-11-09T01:12:51.509Z,1002.2
2017-11-09T01:14:01.911Z,1002.2
2017-11-09T01:15:12.340Z,1002.2
2017-11-09T01:16:22.755Z,1002.2
2017-11-09T01:17:32.832Z,1002.22
2017-11-09T01:18:43.262Z,1002.26
2017-11-09T01:19:53.355Z,1002.27
2017-11-09T01:21:03.818Z,1002.27
2017-11-09T01:22:14.228Z,1002.26
2017-11-09T01:23:24.636Z,1002.27
2017-11-09T01:24:34.712Z,1002.27
2017-11-09T01:25:45.124Z,1002.29
2017-11-09T01:26:55.597Z,1002.28
2017-11-09T01:28:05.992Z,1002.29
2017-11-09T01:29:16.409Z,1002.29
2017-11-09T01:30:26.494Z,1002.28
2017-11-09T01:31:36.901Z,1002.28
2017-11-09T01:32:46.995Z,1002.31
2017-11-09T01:33:57.422Z,1002.27
2017-11-09T01:35:07.166Z,1002.26
2017-11-09T01:36:17.267Z,1002.24
2017-11-09T01:37:27.018Z,1002.2
2017-11-09T01:38:36.813Z,1002.18
2017-11-09T01:39:46.885Z,1002.18
2017-11-09T01:40:57.310Z,1002.17
2017-11-09T01:42:07.723Z,1002.16
2017-11-09T01:43:18.147Z,1002.16
2017-11-09T01:44:28.275Z,1002.2
2017-11-09T01:45:38.362Z,1002.22
2017-11-09T01:46:47.786Z,1002.24
2017-11-09T01:47:57.854Z,1002.23
2017-11-09T01:49:08.255Z,1002.23
2017-11-09T01:50:18.338Z,1002.26
2017-11-09T01:51:28.765Z,1002.25
2017-11-09T01:52:39.179Z,1002.26
2017-11-09T01:53:49.285Z,1002.26
2017-11-09T01:54:59.388Z,1002.28
2017-11-09T01:56:09.858Z,1002.3
2017-11-09T01:57:19.962Z,1002.35
2017-11-09T01:58:30.043Z,1002.34
2017-11-09T01:59:40.123Z,1002.37
2017-11-09T02:00:50.547Z,1002.41
2017-11-09T02:02:01.036Z,1002.41
2017-11-09T02:03:11.220Z,1002.4
2017-11-09T02:04:21.313Z,1002.39
2017-11-09T02:05:31.055Z,1002.39
2017-11-09T02:06:41.164Z,1002.38
2017-11-09T02:07:51.242Z,1002.42
2017-11-09T02:09:01.322Z,1002.4
2017-11-09T02:10:11.730Z,1002.41
2017-11-09T02:11:22.142Z,1002.38
2017-11-09T02:12:32.572Z,1002.44
2017-11-09T02:13:43.057Z,1002.47
2017-11-09T02:14:53.129Z,1002.45
2017-11-09T02:16:03.541Z,1002.47
2017-11-09T02:17:13.662Z,1002.5
2017-11-09T02:18:24.074Z,1002.5
2017-11-09T02:19:34.202Z,1002.46
2017-11-09T02:20:44.614Z,1002.46
2017-11-09T02:21:54.703Z,1002.47
2017-11-09T02:23:04.789Z,1002.51
2017-11-09T02:24:14.882Z,1002.49
2017-11-09T02:25:25.025Z,1002.5
2017-11-09T02:26:35.445Z,1002.49
2017-11-09T02:27:45.842Z,1002.47
2017-11-09T02:28:55.594Z,1002.49
2017-11-09T02:30:05.683Z,1002.54
2017-11-09T02:31:16.096Z,1002.47
2017-11-09T02:32:26.520Z,1002.51
2017-11-09T02:33:36.631Z,1002.55
2017-11-09T02:34:46.973Z,1002.5
2017-11-09T02:35:57.399Z,1002.5
2017-11-09T02:37:07.520Z,1002.53
2017-11-09T02:38:17.642Z,1002.55
2017-11-09T02:39:28.075Z,1002.5
2017-11-09T02:40:38.156Z,1002.55
2017-11-09T02:41:47.893Z,1002.58
2017-11-09T02:42:58.360Z,1002.57
2017-11-09T02:44:08.130Z,1002.55
2017-11-09T02:45:18.558Z,1002.59
2017-11-09T02:46:28.996Z,1002.58
2017-11-09T02:47:39.101Z,1002.58
2017-11-09T02:48:49.292Z,1002.62
2017-11-09T02:49:59.373Z,1002.6
2017-11-09T02:51:09.794Z,1002.6
2017-11-09T02:52:19.854Z,1002.6
2017-11-09T02:53:30.291Z,1002.59
2017-11-09T02:54:40.757Z,1002.59
2017-11-09T02:55:51.171Z,1002.63
2017-11-09T02:57:01.572Z,1002.62
2017-11-09T02:58:11.978Z,1002.6
2017-11-09T02:59:22.398Z,1002.68
2017-11-09T03:00:32.835Z,1002.67
2017-11-09T03:01:42.946Z,1002.65
2017-11-09T03:32:45.361Z,1002.7
2017-11-09T03:33:55.107Z,1002.72
2017-11-09T03:35:05.174Z,1002.72
2017-11-09T03:36:14.924Z,1002.72
2017-11-09T03:37:25.341Z,1002.73
2017-11-09T03:38:35.798Z,1002.74
2017-11-09T03:39:46.207Z,1002.72
2017-11-09T03:40:55.940Z,1002.76
2017-11-09T03:42:06.329Z,1002.76
2017-11-09T03:43:16.071Z,1002.74
2017-11-09T03:44:25.492Z,1002.75
2017-11-09T03:45:35.903Z,1002.77
2017-11-09T03:46:45.979Z,1002.78
2017-11-09T03:47:56.408Z,1002.78
2017-11-09T03:49:06.493Z,1002.77
2017-11-09T03:50:16.621Z,1002.76
2017-11-09T03:51:26.692Z,1002.76
2017-11-09T03:52:36.763Z,1002.81
2017-11-09T03:53:47.170Z,1002.8
2017-11-09T03:54:57.249Z,1002.79
2017-11-09T03:56:07.324Z,1002.78
2017-11-09T03:57:17.746Z,1002.75
2017-11-09T03:58:27.488Z,1002.79
2017-11-09T03:59:37.930Z,1002.82
2017-11-09T04:00:47.692Z,1002.77
2017-11-09T04:01:58.089Z,1002.82
2017-11-09T04:03:08.167Z,1002.79
2017-11-09T04:04:18.579Z,1002.79
2017-11-09T04:05:28.318Z,1002.78
2017-11-09T04:06:38.412Z,1002.76
2017-11-09T04:07:48.860Z,1002.76
2017-11-09T04:08:58.944Z,1002.78
2017-11-09T04:10:08.676Z,1002.77
2017-11-09T04:11:19.089Z,1002.78
2017-11-09T04:12:29.505Z,1002.75
2017-11-09T04:13:39.637Z,1002.75
2017-11-09T04:14:50.046Z,1002.76
2017-11-09T04:16:00.477Z,1002.75
2017-11-09T04:17:10.901Z,1002.77
2017-11-09T04:18:21.306Z,1002.78
2017-11-09T04:19:31.444Z,1002.8
2017-11-09T04:20:41.207Z,1002.82
2017-11-09T04:21:51.273Z,1002.82
2017-11-09T04:23:01.691Z,1002.81
2017-11-09T04:24:11.759Z,1002.82
2017-11-09T04:25:21.883Z,1002.81
2017-11-09T04:26:32.288Z,1002.85
2017-11-09T04:27:42.478Z,1002.83
2017-11-09T04:28:52.570Z,1002.84
2017-11-09T04:30:02.643Z,1002.85
2017-11-09T04:31:12.772Z,1002.81
2017-11-09T04:32:22.853Z,1002.88
2017-11-09T04:33:32.611Z,1002.87
2017-11-09T04:34:42.357Z,1002.88
2017-11-09T04:35:52.445Z,1002.87
2017-11-09T04:37:02.531Z,1002.82
2017-11-09T04:38:12.968Z,1002.83
2017-11-09T04:39:23.394Z,1002.85
2017-11-09T04:40:33.119Z,1002.84
2017-11-09T04:41:43.174Z,1002.84
2017-11-09T04:42:53.309Z,1002.83
2017-11-09T04:44:03.704Z,1002.82
2017-11-09T04:45:14.101Z,1002.84
2017-11-09T04:46:24.511Z,1002.84
2017-11-09T04:47:34.614Z,1002.84
2017-11-09T04:48:44.394Z,1002.82
2017-11-09T04:49:53.475Z,1002.81
2017-11-09T04:51:03.912Z,1002.84
2017-11-09T04:52:14.002Z,1002.87
2017-11-09T04:53:24.417Z,1002.86
2017-11-09T04:54:34.890Z,1002.93
2017-11-09T04:55:44.619Z,1002.9
2017-11-09T04:56:54.704Z,1002.95
2017-11-09T04:58:05.103Z,1002.93
2017-11-09T04:59:15.525Z,1002.93
2017-11-09T05:00:25.592Z,1002.96
2017-11-09T05:01:36.000Z,1003
2017-11-09T05:02:46.397Z,1003.05
2017-11-09T05:03:56.826Z,1003.03
2017-11-09T05:05:06.606Z,1003.05
2017-11-09T05:06:16.351Z,1003.01
2017-11-09T05:07:26.760Z,1003
2017-11-09T05:08:36.540Z,1002.99
2017-11-09T05:09:46.953Z,1003.01
2017-11-09T05:10:57.037Z,1002.99
2017-11-09T05:12:07.513Z,1003.05
2017-11-09T05:13:17.606Z,1003
2017-11-09T05:14:27.408Z,1003
2017-11-09T05:15:37.810Z,1002.99
2017-11-09T05:16:48.247Z,1002.99
2017-11-09T05:17:58.721Z,1002.99
2017-11-09T05:19:09.030Z,1002.99
2017-11-09T05:20:18.458Z,1002.98
2017-11-09T05:21:28.874Z,1003.02
2017-11-09T05:22:39.278Z,1002.99
2017-11-09T05:23:49.750Z,1002.98
2017-11-09T05:24:59.830Z,1003.03
2017-11-09T05:26:09.915Z,1002.95
2017-11-09T05:27:20.027Z,1002.94
2017-11-09T05:28:30.099Z,1002.93
2017-11-09T05:29:39.845Z,1002.96
2017-11-09T05:30:50.244Z,1002.92
2017-11-09T05:32:00.645Z,1002.93
2017-11-09T05:33:10.708Z,1002.93
2017-11-09T05:34:21.133Z,1002.91
2017-11-09T05:35:31.261Z,1002.9
2017-11-09T05:36:41.342Z,1002.9
2017-11-09T05:37:51.422Z,1002.89
2017-11-09T05:39:01.165Z,1002.89
2017-11-09T05:40:11.276Z,1002.87
2017-11-09T05:41:21.413Z,1002.85
2017-11-09T05:42:31.830Z,1002.88
2017-11-09T05:43:41.914Z,1002.91
2017-11-09T05:44:52.341Z,1002.92
2017-11-09T05:46:02.756Z,1002.94
2017-11-09T05:47:13.237Z,1002.94
2017-11-09T05:48:23.658Z,1002.99
2017-11-09T05:49:33.775Z,1003.01
2017-11-09T05:50:44.217Z,1002.99
2017-11-09T05:51:54.322Z,1003.01
2017-11-09T05:53:04.446Z,1003.03
2017-11-09T05:54:14.541Z,1003.03
2017-11-09T05:55:24.623Z,1003.04
2017-11-09T05:56:34.696Z,1003.06
2017-11-09T05:57:44.767Z,1003.05
2017-11-09T05:58:55.193Z,1003.03
2017-11-09T06:00:05.635Z,1003.06
2017-11-09T06:01:16.061Z,1003.07
2017-11-09T06:02:25.816Z,1003.11
2017-11-09T06:03:36.260Z,1003.14
2017-11-09T06:04:46.385Z,1003.13
2017-11-09T06:05:56.809Z,1003.11
2017-11-09T06:07:07.235Z,1003.16
2017-11-09T06:08:17.637Z,1003.16
2017-11-09T06:09:27.707Z,1003.21
2017-11-09T06:10:37.806Z,1003.23
2017-11-09T06:11:48.210Z,1003.23
2017-11-09T06:12:58.650Z,1003.28
2017-11-09T06:14:08.748Z,1003.29
2017-11-09T06:15:18.804Z,1003.28
2017-11-09T06:16:28.591Z,1003.31
2017-11-09T06:17:38.998Z,1003.3
2017-11-09T06:18:48.742Z,1003.34
2017-11-09T06:19:58.487Z,1003.34
2017-11-09T06:21:08.887Z,1003.35
2017-11-09T06:22:19.356Z,1003.37
2017-11-09T06:23:29.782Z,1003.39
2017-11-09T06:24:39.861Z,1003.37
2017-11-09T06:25:50.263Z,1003.39
2017-11-09T06:27:00.673Z,1003.43
2017-11-09T06:28:10.463Z,1003.45
2017-11-09T06:29:20.548Z,1003.47
2017-11-09T06:30:30.683Z,1003.5
2017-11-09T06:31:40.427Z,1003.5
2017-11-09T06:32:50.846Z,1003.51
2017-11-09T06:34:00.591Z,1003.5
2017-11-09T06:35:10.995Z,1003.54
2017-11-09T06:36:21.411Z,1003.56
2017-11-09T06:37:31.832Z,1003.59
2017-11-09T06:38:41.945Z,1003.58
2017-11-09T06:39:52.407Z,1003.6
2017-11-09T06:41:02.828Z,1003.6
2017-11-09T06:42:12.900Z,1003.64
2017-11-09T06:43:23.296Z,1003.63
2017-11-09T06:44:33.714Z,1003.64
2017-11-09T06:45:43.787Z,1003.65
2017-11-09T06:46:54.201Z,1003.65
2017-11-09T06:48:04.282Z,1003.67
2017-11-09T06:49:14.358Z,1003.68
2017-11-09T06:50:24.117Z,1003.7
2017-11-09T06:51:34.212Z,1003.7
2017-11-09T06:52:44.317Z,1003.7
2017-11-09T06:53:54.384Z,1003.74
2017-11-09T06:55:04.465Z,1003.78
2017-11-09T06:56:14.205Z,1003.8
2017-11-09T06:57:24.678Z,1003.77
2017-11-09T06:58:34.413Z,1003.83
2017-11-09T06:59:44.478Z,1003.85
2017-11-09T07:00:54.544Z,1003.85
2017-11-09T07:02:04.955Z,1003.9
2017-11-09T07:03:15.043Z,1003.9
2017-11-09T07:04:25.122Z,1003.94
2017-11-09T07:05:35.525Z,1003.91
2017-11-09T07:06:45.615Z,1003.97
2017-11-09T07:07:56.048Z,1003.96
2017-11-09T07:09:06.152Z,1003.94
2017-11-09T07:10:15.894Z,1003.98
2017-11-09T07:11:25.978Z,1003.95
2017-11-09T07:12:36.388Z,1003.99
2017-11-09T07:13:46.147Z,1003.99
2017-11-09T07:14:55.959Z,1004.07
2017-11-09T07:16:06.051Z,1004.03
2017-11-09T07:17:15.832Z,1004.08
2017-11-09T07:18:26.248Z,1004.11
2017-11-09T07:19:35.997Z,1004.13
2017-11-09T07:20:46.492Z,1004.15
2017-11-09T07:21:56.582Z,1004.16
2017-11-09T07:23:07.000Z,1004.18
2017-11-09T07:24:16.753Z,1004.22
2017-11-09T07:25:26.885Z,1004.18
2017-11-09T07:26:37.008Z,1004.21
2017-11-09T07:27:47.408Z,1004.21
2017-11-09T07:28:57.820Z,1004.24
2017-11-09T07:30:07.891Z,1004.17
2017-11-09T07:31:17.965Z,1004.22
2017-11-09T07:32:28.434Z,1004.22
2017-11-09T07:33:38.874Z,1004.22
2017-11-09T07:34:49.289Z,1004.22
2017-11-09T07:35:59.367Z,1004.2
2017-11-09T07:37:09.108Z,1004.17
2017-11-09T07:38:18.931Z,1004.18
2017-11-09T07:39:29.034Z,1004.15
2017-11-09T07:40:39.463Z,1004.14
2017-11-09T07:41:49.891Z,1004.17
2017-11-09T07:43:00.056Z,1004.13
2017-11-09T07:44:10.541Z,1004.18
2017-11-09T07:45:20.974Z,1004.17
2017-11-09T07:46:31.046Z,1004.15
2017-11-09T07:47:41.128Z,1004.18
2017-11-09T07:48:50.867Z,1004.15
2017-11-09T07:50:00.724Z,1004.18
2017-11-09T07:51:10.794Z,1004.17
2017-11-09T07:52:21.237Z,1004.13
2017-11-09T07:53:31.297Z,1004.21
2017-11-09T07:54:41.380Z,1004.21
2017-11-09T07:55:51.803Z,1004.19
2017-11-09T07:57:01.237Z,1004.2
2017-11-09T07:58:11.657Z,1004.21
2017-11-09T07:59:22.097Z,1004.23
2017-11-09T08:00:32.218Z,1004.23
2017-11-09T08:01:41.692Z,1004.24
2017-11-09T08:02:52.104Z,1004.22
2017-11-09T08:04:02.205Z,1004.27
2017-11-09T08:05:12.616Z,1004.23
2017-11-09T08:06:22.696Z,1004.24
2017-11-09T08:07:32.494Z,1004.27
2017-11-09T08:08:42.901Z,1004.3
2017-11-09T08:09:53.012Z,1004.3
2017-11-09T08:11:03.479Z,1004.28
2017-11-09T08:12:13.890Z,1004.3
2017-11-09T08:13:24.016Z,1004.29
2017-11-09T08:14:34.434Z,1004.29
2017-11-09T08:15:44.851Z,1004.3
2017-11-09T08:16:55.264Z,1004.33
2017-11-09T08:18:05.766Z,1004.32
2017-11-09T08:19:15.223Z,1004.34
2017-11-09T08:20:24.978Z,1004.34
2017-11-09T08:21:35.053Z,1004.34
2017-11-09T08:22:44.476Z,1004.34
2017-11-09T08:23:54.878Z,1004.35
2017-11-09T08:25:05.342Z,1004.36
2017-11-09T08:26:15.077Z,1004.34
2017-11-09T08:27:24.480Z,1004.33
2017-11-09T08:28:34.879Z,1004.37
2017-11-09T08:29:45.288Z,1004.39
2017-11-09T08:30:55.447Z,1004.37
2017-11-09T08:32:05.901Z,1004.34
2017-11-09T08:33:16.312Z,1004.32
2017-11-09T08:34:26.741Z,1004.36
2017-11-09T08:35:37.166Z,1004.39
2017-11-09T08:36:46.971Z,1004.37
2017-11-09T08:37:57.396Z,1004.4
2017-11-09T08:39:07.831Z,1004.41
2017-11-09T08:40:18.267Z,1004.41
2017-11-09T08:41:28.344Z,1004.4
2017-11-09T08:42:38.166Z,1004.42
2017-11-09T08:43:48.580Z,1004.45
2017-11-09T08:44:58.250Z,1004.44
2017-11-09T08:46:07.502Z,1004.45
2017-11-09T08:47:17.937Z,1004.46
2017-11-09T08:48:28.011Z,1004.46
2017-11-09T08:49:38.416Z,1004.5
2017-11-09T08:50:48.836Z,1004.48
2017-11-09T08:51:58.921Z,1004.51
2017-11-09T08:53:09.037Z,1004.53
2017-11-09T08:54:19.530Z,1004.48
2017-11-09T08:55:29.964Z,1004.51
2017-11-09T08:56:40.389Z,1004.51
2017-11-09T08:57:50.848Z,1004.52
2017-11-09T08:59:00.936Z,1004.55
2017-11-09T09:00:10.697Z,1004.57
2017-11-09T09:01:20.448Z,1004.59
2017-11-09T09:02:30.874Z,1004.57
2017-11-09T09:03:40.974Z,1004.57
2017-11-09T09:04:51.068Z,1004.58
2017-11-09T09:06:00.869Z,1004.59
2017-11-09T09:07:11.305Z,1004.6
2017-11-09T09:08:21.731Z,1004.65
2017-11-09T09:09:31.825Z,1004.63
2017-11-09T09:10:41.900Z,1004.65
2017-11-09T09:11:52.360Z,1004.64
2017-11-09T09:13:02.779Z,1004.67
2017-11-09T09:14:12.878Z,1004.65
2017-11-09T09:15:22.953Z,1004.66
2017-11-09T09:16:33.037Z,1004.64
2017-11-09T09:17:43.165Z,1004.67
2017-11-09T09:18:53.256Z,1004.7
2017-11-09T09:20:03.669Z,1004.67
2017-11-09T09:21:14.094Z,1004.68
2017-11-09T09:22:24.177Z,1004.69
2017-11-09T09:23:34.659Z,1004.68
2017-11-09T09:24:44.734Z,1004.66
2017-11-09T09:25:54.477Z,1004.67
2017-11-09T09:27:04.237Z,1004.68
2017-11-09T09:28:14.335Z,1004.68
2017-11-09T09:29:24.801Z,1004.69
2017-11-09T09:30:34.888Z,1004.7
2017-11-09T09:31:44.976Z,1004.7
2017-11-09T09:32:55.068Z,1004.69
2017-11-09T09:34:04.827Z,1004.69
2017-11-09T09:35:15.251Z,1004.69
2017-11-09T09:36:25.336Z,1004.68
2017-11-09T09:37:35.749Z,1004.71
2017-11-09T09:38:46.172Z,1004.71
2017-11-09T09:39:56.592Z,1004.68
2017-11-09T09:41:06.753Z,1004.66
2017-11-09T09:42:16.831Z,1004.64
2017-11-09T09:43:27.258Z,1004.67
2017-11-09T09:44:37.006Z,1004.66
2017-11-09T09:45:47.096Z,1004.67
2017-11-09T09:46:57.498Z,1004.68
2017-11-09T09:48:07.931Z,1004.68
2017-11-09T09:49:18.390Z,1004.69
2017-11-09T09:50:28.826Z,1004.71
2017-11-09T09:51:39.233Z,1004.7
2017-11-09T09:52:49.638Z,1004.7
2017-11-09T09:53:59.389Z,1004.74
2017-11-09T09:55:09.802Z,1004.7
2017-11-09T09:56:19.555Z,1004.71
2017-11-09T09:57:29.649Z,1004.67
2017-11-09T09:58:40.107Z,1004.68
2017-11-09T09:59:50.522Z,1004.71
2017-11-09T10:01:00.289Z,1004.7
2017-11-09T10:02:10.718Z,1004.69
2017-11-09T10:03:21.143Z,1004.72
2017-11-09T10:04:31.599Z,1004.7
2017-11-09T10:05:41.011Z,1004.64
2017-11-09T10:06:51.106Z,1004.59
2017-11-09T10:08:01.200Z,1004.65
2017-11-09T10:09:11.602Z,1004.64
2017-11-09T10:10:21.386Z,1004.65
2017-11-09T10:11:31.860Z,1004.62
2017-11-09T10:12:41.621Z,1004.62
2017-11-09T10:13:51.712Z,1004.63
2017-11-09T10:15:01.796Z,1004.63
2017-11-09T10:16:12.218Z,1004.62
2017-11-09T10:17:21.666Z,1004.61
2017-11-09T10:18:32.087Z,1004.64
2017-11-09T10:19:42.211Z,1004.61
2017-11-09T10:20:52.294Z,1004.61
2017-11-09T10:22:02.381Z,1004.63
2017-11-09T10:23:12.471Z,1004.62
2017-11-09T10:24:21.884Z,1004.6
2017-11-09T10:25:32.311Z,1004.57
2017-11-09T10:26:42.723Z,1004.6
2017-11-09T10:27:52.464Z,1004.65
2017-11-09T10:29:02.577Z,1004.65
2017-11-09T10:30:13.688Z,1004.59
2017-11-09T10:31:23.821Z,1004.65
2017-11-09T10:32:33.913Z,1004.63
2017-11-09T10:33:44.008Z,1004.63
2017-11-09T10:34:54.447Z,1004.62
2017-11-09T10:36:04.556Z,1004.59
2017-11-09T10:37:14.693Z,1004.57
2017-11-09T10:38:24.427Z,1004.6
2017-11-09T10:39:34.879Z,1004.61
2017-11-09T10:40:44.959Z,1004.59
2017-11-09T10:41:55.390Z,1004.58
2017-11-09T10:43:05.538Z,1004.55
2017-11-09T10:44:15.629Z,1004.53
2017-11-09T10:45:26.046Z,1004.51
2017-11-09T10:46:36.472Z,1004.48
2017-11-09T10:47:46.564Z,1004.46
2017-11-09T10:48:56.328Z,1004.47
2017-11-09T10:50:06.079Z,1004.45
2017-11-09T10:51:16.509Z,1004.42
2017-11-09T10:52:26.918Z,1004.42
2017-11-09T10:53:37.010Z,1004.41
2017-11-09T10:54:46.824Z,1004.44
2017-11-09T10:55:57.256Z,1004.43
2017-11-09T10:57:07.705Z,1004.42
2017-11-09T10:58:17.806Z,1004.39
2017-11-09T10:59:27.897Z,1004.38
2017-11-09T11:00:38.005Z,1004.39
2017-11-09T11:01:48.100Z,1004.36
2017-11-09T11:02:58.187Z,1004.34
2017-11-09T11:04:07.584Z,1004.38
2017-11-09T11:05:18.003Z,1004.37
2017-11-09T11:06:28.085Z,1004.39
2017-11-09T11:07:37.510Z,1004.34
2017-11-09T11:08:47.927Z,1004.37
2017-11-09T11:09:58.398Z,1004.39
2017-11-09T11:11:08.504Z,1004.31
2017-11-09T11:12:18.927Z,1004.32
2017-11-09T11:13:28.360Z,1004.3
2017-11-09T11:14:38.493Z,1004.33
2017-11-09T11:15:48.558Z,1004.33
2017-11-09T11:16:58.656Z,1004.34
2017-11-09T11:18:08.415Z,1004.33
2017-11-09T11:19:18.842Z,1004.37
2017-11-09T11:20:28.948Z,1004.35
2017-11-09T11:21:39.364Z,1004.37
2017-11-09T11:22:49.158Z,1004.36
2017-11-09T11:23:59.579Z,1004.35
2017-11-09T11:25:10.036Z,1004.36
2017-11-09T11:26:20.112Z,1004.31
2017-11-09T11:27:30.544Z,1004.29
2017-11-09T11:28:40.962Z,1004.32
2017-11-09T11:29:50.719Z,1004.31
2017-11-09T11:31:01.135Z,1004.32
2017-11-09T11:32:11.216Z,1004.33
2017-11-09T11:33:21.289Z,1004.33
2017-11-09T11:34:31.699Z,1004.31
2017-11-09T11:35:41.801Z,1004.3
2017-11-09T11:36:51.899Z,1004.3
2017-11-09T11:38:01.991Z,1004.29
2017-11-09T11:39:12.469Z,1004.3
2017-11-09T11:40:22.210Z,1004.31
2017-11-09T11:41:32.616Z,1004.27
2017-11-09T11:42:43.028Z,1004.27
2017-11-09T11:43:53.448Z,1004.32
2017-11-09T11:45:03.587Z,1004.33
2017-11-09T11:46:13.663Z,1004.33
2017-11-09T11:47:23.775Z,1004.29
2017-11-09T11:48:34.196Z,1004.32
2017-11-09T11:49:43.961Z,1004.3
2017-11-09T11:50:54.037Z,1004.27
2017-11-09T11:52:04.433Z,1004.28
2017-11-09T11:53:15.258Z,1004.31
2017-11-09T11:54:25.352Z,1004.3
2017-11-09T11:55:35.773Z,1004.29
2017-11-09T11:56:45.863Z,1004.27
2017-11-09T11:57:55.962Z,1004.28
2017-11-09T11:59:06.406Z,1004.3
2017-11-09T12:00:16.488Z,1004.27
2017-11-09T12:01:26.229Z,1004.3
2017-11-09T12:02:36.702Z,1004.35
2017-11-09T12:03:46.789Z,1004.29
2017-11-09T12:04:56.870Z,1004.31
2017-11-09T12:06:07.285Z,1004.27
2017-11-09T12:07:17.731Z,1004.2
2017-11-09T12:08:28.228Z,1004.21
2017-11-09T12:09:38.315Z,1004.19
2017-11-09T12:10:48.731Z,1004.22
2017-11-09T12:11:59.136Z,1004.18
2017-11-09T12:13:09.242Z,1004.2
2017-11-09T12:14:19.352Z,1004.19
2017-11-09T12:15:29.787Z,1004.21
2017-11-09T12:16:40.195Z,1004.19
2017-11-09T12:17:50.615Z,1004.2
2017-11-09T12:19:00.366Z,1004.2
2017-11-09T12:20:10.522Z,1004.19
2017-11-09T12:21:20.304Z,1004.17
2017-11-09T12:22:30.703Z,1004.15
2017-11-09T12:23:41.106Z,1004.21
2017-11-09T12:24:52.163Z,1004.2
2017-11-09T12:26:02.632Z,1004.21
2017-11-09T12:27:13.050Z,1004.22
2017-11-09T12:28:23.129Z,1004.21
2017-11-09T12:29:33.558Z,1004.2
2017-11-09T12:30:43.989Z,1004.15
2017-11-09T12:31:53.752Z,1004.16
2017-11-09T12:33:04.152Z,1004.17
2017-11-09T12:34:14.555Z,1004.14
2017-11-09T12:35:24.648Z,1004.17
2017-11-09T12:36:35.086Z,1004.14
2017-11-09T12:37:45.550Z,1004.17
2017-11-09T12:38:55.631Z,1004.17
2017-11-09T12:40:05.727Z,1004.12
2017-11-09T12:41:15.819Z,1004.15
2017-11-09T12:42:25.898Z,1004.17
2017-11-09T12:43:36.041Z,1004.09
2017-11-09T12:44:46.469Z,1004.14
2017-11-09T12:45:56.902Z,1004.13
2017-11-09T12:47:07.001Z,1004.11
2017-11-09T12:48:17.421Z,1004.06
2017-11-09T12:49:26.837Z,1004.11
2017-11-09T12:50:37.260Z,1004.03
2017-11-09T12:51:47.346Z,1004.06
2017-11-09T12:52:57.438Z,1004.06
2017-11-09T12:54:07.519Z,1004.02
2017-11-09T12:55:17.630Z,1004.04
2017-11-09T12:56:28.109Z,1004.04
2017-11-09T12:57:38.205Z,1004.03
2017-11-09T12:58:48.291Z,1004.03
2017-11-09T12:59:58.715Z,1004.04
2017-11-09T13:01:09.200Z,1004.04
2017-11-09T13:02:19.609Z,1004.02
2017-11-09T13:03:29.724Z,1003.97
2017-11-09T13:04:39.820Z,1003.97
2017-11-09T13:05:49.547Z,1003.98
2017-11-09T13:06:59.689Z,1003.99
2017-11-09T13:08:09.456Z,1003.97
2017-11-09T13:09:19.575Z,1003.97
2017-11-09T13:10:29.679Z,1003.99
2017-11-09T13:11:39.435Z,1004.01
2017-11-09T13:12:49.518Z,1003.96
2017-11-09T13:13:59.939Z,1003.98
2017-11-09T13:15:10.017Z,1003.93
2017-11-09T13:16:20.444Z,1003.95
2017-11-09T13:17:30.865Z,1003.95
2017-11-09T13:18:41.281Z,1003.95
2017-11-09T13:19:51.029Z,1004.02
2017-11-09T13:21:01.116Z,1003.94
2017-11-09T13:22:11.192Z,1003.91
2017-11-09T13:23:21.627Z,1004
2017-11-09T13:24:32.080Z,1003.99
2017-11-09T13:25:42.498Z,1004
2017-11-09T13:26:52.920Z,1003.98
2017-11-09T13:28:03.329Z,1003.98
2017-11-09T13:29:13.762Z,1004.03
2017-11-09T13:30:24.233Z,1004.01
2017-11-09T13:31:34.360Z,1004
2017-11-09T13:32:44.797Z,1004.01
2017-11-09T13:33:54.916Z,1004.01
2017-11-09T13:35:05.025Z,1003.98
2017-11-09T13:36:15.533Z,1004.03
2017-11-09T13:37:25.961Z,1003.98
2017-11-09T13:38:36.057Z,1003.94
2017-11-09T13:39:46.156Z,1003.98
2017-11-09T13:40:55.890Z,1003.98
2017-11-09T13:42:06.401Z,1003.96
2017-11-09T13:43:16.491Z,1003.98
2017-11-09T13:44:26.255Z,1003.98
2017-11-09T13:45:36.343Z,1003.96
2017-11-09T13:46:46.761Z,1003.98
2017-11-09T13:47:57.225Z,1003.94
2017-11-09T13:49:06.959Z,1003.97
2017-11-09T13:50:16.729Z,1003.91
2017-11-09T13:51:27.151Z,1003.96
2017-11-09T13:52:37.561Z,1003.94
2017-11-09T13:53:47.964Z,1003.94
2017-11-09T13:54:58.426Z,1003.98
2017-11-09T13:56:08.859Z,1003.97
2017-11-09T13:57:19.264Z,1003.95
2017-11-09T13:58:29.706Z,1003.98
2017-11-09T13:59:40.133Z,1003.97
2017-11-09T14:00:50.227Z,1003.95
2017-11-09T14:02:00.639Z,1003.94
2017-11-09T14:03:10.750Z,1003.92
2017-11-09T14:04:21.176Z,1003.9
2017-11-09T14:05:30.929Z,1003.88
2017-11-09T14:06:41.325Z,1003.9
2017-11-09T14:07:51.787Z,1003.86
2017-11-09T14:09:01.902Z,1003.89
2017-11-09T14:10:11.993Z,1003.89
2017-11-09T14:11:22.435Z,1003.9
2017-11-09T14:12:32.846Z,1003.87
2017-11-09T14:13:43.325Z,1003.88
2017-11-09T14:14:53.417Z,1003.92
2017-11-09T14:16:03.842Z,1003.92
2017-11-09T14:17:13.607Z,1003.91
2017-11-09T14:18:23.371Z,1003.93
2017-11-09T14:19:33.469Z,1003.9
2017-11-09T14:20:43.880Z,1003.93
2017-11-09T14:21:54.306Z,1003.94
2017-11-09T14:23:04.725Z,1003.96
2017-11-09T14:24:14.465Z,1003.94
2017-11-09T14:25:24.554Z,1003.94
2017-11-09T14:26:34.656Z,1003.98
2017-11-09T14:27:45.080Z,1003.98
2017-11-09T14:28:55.174Z,1004
2017-11-09T14:30:05.249Z,1004.01
2017-11-09T14:31:15.419Z,1003.96
2017-11-09T14:32:26.004Z,1003.96
2017-11-09T14:33:36.425Z,1003.97
2017-11-09T14:34:47.600Z,1003.98
2017-11-09T14:35:57.702Z,1003.97
2017-11-09T14:37:08.127Z,1003.99
2017-11-09T14:38:18.537Z,1003.98
2017-11-09T14:39:28.623Z,1004
2017-11-09T14:40:38.393Z,1004
2017-11-09T14:41:48.486Z,1004.04
2017-11-09T14:42:58.629Z,1004.03
2017-11-09T14:44:08.755Z,1004.03
2017-11-09T14:45:18.841Z,1004.03
2017-11-09T14:46:29.863Z,1004.03
2017-11-09T14:47:40.299Z,1004.01
2017-11-09T14:48:50.450Z,1004.03
2017-11-09T14:50:00.874Z,1004.03